Bei Facebook empfehlenBei Twitter postenGoogle plusPinterest

Das Wetter im Erzgebirge am 27.03.2016

Wetter und Klima am 27.03.2016 Holzhau im Erzgebirge (630m ü.NN)
Letzte gemessene Temperatur und Uhrzeit der Messung23:45:00 Uhr3.30 °C
Temperatur (Maximum / Höchstwert) und Uhrzeit der Messung14:15:00 Uhr13.20 °C
Temperatur (Minimum / Tiefstwert) und Uhrzeit der Messung01:45:000.90 °C
Errechneter Absolutwert der Temperaturschwankungen zwischen Tmin und Tmax des Tages12.30 K
Errechnete Tagesmitteltemperatur6.40544 °C
Gesamt - Niederschlag des Tages (in flüssiger Form)0.00 Liter / m²
Luftdruck (Maximum / Höchstwert) und Zeitpunkt der Messung00:15:00 Uhr1011.30 hPa
Luftdruck (Minimum / Tiefstwert) und Zeitpunkt der Messung10:15:00 Uhr1007.80 hPa
Errechneter Absolutwert der Luftdruckschwankungen des Tages3.50 hPa
Höchste gemessene Windgeschwindigkeit und Uhrzeit der Messung07:15:00 Uhr17.28 km/h
Errechnete Windhäufigkeit in Relation zu den Messwerten des Tages13.04348 %
Niedrigste Windkühle (Windchill) und Zeitpunkt der Messung04:30:00 Uhr-1.80 °C
Taupunkt (Maximum / Höchstwert) und Uhrzeit der Messung16:45:00 Uhr5.80 °C
Taupunkt (Minimum / Tiefstwert) und Uhrzeit der Messung01:00:00-0.20 °C
Anzahl der automatisch eingelesenen Messwerte 92

Detaillierte Wetter- und Klima- Messwerte für den 27.03.2016 in Holzhau im Erzgebirge (630m ü.NN)
ZeitTemperaturLuftdruckRel. LuftfeuchteWindWindrichtungWindchillTaupunktNiederschlag l/m²
23:45:003.30 °C1009.10 hPa86.00 %1.20 °C 
23:30:003.30 °C1009.30 hPa85.00 %1.00 °C 
23:15:003.40 °C1009.20 hPa85.00 %1.10 °C 
23:00:003.80 °C1009.20 hPa85.00 %1.50 °C 
22:45:004.10 °C1009.30 hPa84.00 %1.60 °C 
22:30:004.40 °C1009.10 hPa83.00 %1.80 °C 
22:15:004.70 °C1008.90 hPa83.00 %2.10 °C 
22:00:005.10 °C1009.10 hPa82.00 %2.30 °C 
21:45:005.40 °C1009.20 hPa82.00 %2.60 °C 
21:30:005.60 °C1009.50 hPa81.00 %2.60 °C 
21:15:005.90 °C1009.30 hPa81.00 %2.90 °C 
21:00:006.10 °C1009.50 hPa81.00 %3.10 °C 
20:45:006.40 °C1009.50 hPa81.00 %3.40 °C 
20:30:006.60 °C1009.60 hPa80.00 %3.40 °C 
20:15:006.90 °C1009.60 hPa80.00 %3.70 °C 
20:00:007.00 °C1009.40 hPa79.00 %3.60 °C 
19:45:007.20 °C1009.30 hPa79.00 %3.80 °C 
19:30:007.30 °C1009.30 hPa78.00 %3.70 °C 
19:15:007.60 °C1009.10 hPa77.00 %3.80 °C 
19:00:007.90 °C1009.20 hPa76.00 %3.90 °C 
18:45:008.30 °C1008.90 hPa75.00 %4.10 °C 
18:30:008.70 °C1008.70 hPa74.00 %4.30 °C 
18:15:009.10 °C1008.60 hPa73.00 %4.50 °C 
18:00:009.40 °C1008.50 hPa72.00 %4.60 °C 
17:45:009.80 °C1008.40 hPa71.00 %4.80 °C 
17:30:0010.20 °C1008.10 hPa69.00 %4.80 °C 
17:15:0011.00 °C1008.40 hPa69.00 %5.50 °C 
17:00:0011.30 °C1008.00 hPa68.00 %5.60 °C 
16:45:0011.50 °C1008.00 hPa68.00 %5.80 °C 
16:30:0011.50 °C1007.90 hPa68.00 %5.80 °C 
16:15:0011.40 °C1008.20 hPa68.00 %5.70 °C 
16:00:0011.50 °C1008.10 hPa67.00 %5.60 °C 
15:45:0011.90 °C1008.00 hPa65.00 %5.50 °C 
15:30:0012.20 °C1008.10 hPa64.00 %5.60 °C 
15:15:0012.10 °C1008.10 hPa64.00 %5.50 °C 
15:00:0011.80 °C1008.30 hPa63.00 %5.00 °C 
14:45:0011.50 °C1008.10 hPa61.00 %4.30 °C 
14:30:0012.40 °C1008.50 hPa59.00 %4.60 °C 
14:15:0013.20 °C1008.30 hPa60.00 %5.60 °C 
14:00:0012.90 °C1008.50 hPa61.00 %5.60 °C 
13:45:0011.80 °C1008.40 hPa61.00 %4.50 °C 
13:30:0011.20 °C1008.40 hPa61.00 %4.00 °C 
13:15:0011.10 °C1008.70 hPa61.00 %3.90 °C 
13:00:0011.00 °C1008.70 hPa60.00 %3.50 °C 
12:45:0011.40 °C1008.80 hPa58.00 %3.40 °C 
12:30:0011.90 °C1008.40 hPa60.00 %4.40 °C 
12:15:0011.60 °C1008.00 hPa63.00 %4.80 °C 
12:00:0011.00 °C1008.30 hPa65.00 %4.70 °C 
11:45:0010.60 °C1008.10 hPa68.00 %4.90 °C 
11:30:0010.10 °C1008.20 hPa71.00 %5.10 °C 
11:15:009.30 °C1008.10 hPa72.00 %4.50 °C 
11:00:008.90 °C1008.20 hPa75.00 %4.70 °C 
10:45:008.50 °C1008.00 hPa77.00 %4.70 °C 
10:30:008.00 °C1008.00 hPa78.00 %4.40 °C 
10:15:007.90 °C1007.80 hPa79.00 %4.50 °C 
10:00:007.80 °C1007.80 hPa83.00 %5.10 °C 
09:45:007.20 °C1007.90 hPa83.00 %4.50 °C 
09:30:006.60 °C1007.90 hPa85.00 %4.30 °C 
09:15:006.50 °C1008.30 hPa87.00 %8.28 km/hOSO4.80 °C4.50 °C 
09:00:006.20 °C1008.30 hPa89.00 %4.50 °C 
08:45:005.80 °C1008.40 hPa90.00 %4.30 °C 
08:30:005.50 °C1008.40 hPa92.00 %10.44 km/hSO3.20 °C4.30 °C 
08:15:005.00 °C1008.40 hPa92.00 %5.40 km/hSO3.90 °C3.80 °C 
08:00:004.60 °C1008.40 hPa93.00 %5.40 km/hSO3.50 °C3.60 °C 
07:45:004.10 °C1008.50 hPa94.00 %10.80 km/hOSO1.40 °C3.20 °C 
07:30:003.60 °C1008.50 hPa94.00 %2.70 °C 
07:15:003.00 °C1008.60 hPa94.00 %17.28 km/hSO-1.10 °C2.10 °C 
07:00:002.50 °C1008.70 hPa94.00 %7.20 km/hOSO0.40 °C1.60 °C 
06:45:002.10 °C1008.90 hPa94.00 %1.20 °C 
06:30:001.90 °C1008.90 hPa94.00 %1.00 °C 
06:15:001.80 °C1008.80 hPa94.00 %0.90 °C 
06:00:001.60 °C1008.90 hPa94.00 %5.76 km/hOSO-0.10 °C0.70 °C 
05:45:001.70 °C1009.30 hPa94.00 %0.80 °C 
05:30:001.60 °C1009.30 hPa94.00 %0.70 °C 
05:15:001.80 °C1009.50 hPa94.00 %0.90 °C 
05:00:001.90 °C1009.60 hPa94.00 %1.00 °C 
04:45:001.90 °C1009.80 hPa94.00 %5.04 km/hO0.50 °C1.00 °C 
04:30:001.60 °C1009.80 hPa94.00 %11.88 km/hONO-1.80 °C0.70 °C 
04:15:001.30 °C1010.00 hPa93.00 %0.30 °C 
04:00:001.30 °C1010.20 hPa93.00 %0.30 °C 
03:45:001.10 °C1010.10 hPa93.00 %0.10 °C 
03:30:001.10 °C1010.20 hPa93.00 %0.10 °C 
03:15:001.10 °C1010.30 hPa93.00 %0.10 °C 
03:00:001.10 °C1010.40 hPa93.00 %0.10 °C 
01:45:000.90 °C1010.50 hPa93.00 %-0.10 °C 
01:30:000.90 °C1010.70 hPa93.00 %-0.10 °C 
01:15:000.90 °C1010.90 hPa93.00 %-0.10 °C 
01:00:000.90 °C1011.10 hPa92.00 %-0.20 °C 
00:45:000.90 °C1011.20 hPa92.00 %3.60 km/hNNO0.90 °C-0.20 °C 
00:30:001.10 °C1011.10 hPa92.00 %-0.10 °C 
00:15:001.10 °C1011.30 hPa92.00 %3.96 km/hNO1.10 °C-0.10 °C 
00:00:001.30 °C1011.30 hPa92.00 %0.10 °C 

Permanenter Link zu dieser Seite: Wetter im Erzgebirge am 27.03.2016
Performance-Info: Die Erstellung der Seite / Statistik(en) / Tabelle(n) erforderte 5 Datenbankserver-Abfrage(n) und dauerte 122 Millisekunden. (Dieser Messwert ist von der Gesamt-Auslastung des Servers abhängig.)
Erzgebirge - Wetter | Erzgebirge - Wetter (Mobilgeräte) | Komplette Klimadatenbank